Time;durP1;ratioP1;P1;durP2;ratioP2;P2;SDS_P1;SDS_P2;PMS_P1;PMS_P2;Temp;Humidity;BMP_temperature;BMP_pressure;BME280_temperature;BME280_humidity;BME280_pressure;Samples;Min_cycle;Max_cycle;Signal;HPM_P1;HPM_P2
2023/03/10 00:00:07;;;;;;;27.77;15.20;;;;;;;;;;4985961;28;20409;-65
2023/03/10 00:02:35;;;;;;;28.75;14.90;;;;;;;;;;4971441;28;20128;-65
2023/03/10 00:05:03;;;;;;;30.98;15.98;;;;;;;;;;4984505;28;20054;-65
2023/03/10 00:07:30;;;;;;;31.88;16.55;;;;;;;;;;4981598;28;20492;-65
2023/03/10 00:09:59;;;;;;;28.20;15.77;;;;;;;;;;4984800;28;20065;-65
2023/03/10 00:12:26;;;;;;;31.85;16.63;;;;;;;;;;4988713;28;20049;-64
2023/03/10 00:14:55;;;;;;;31.40;16.38;;;;;;;;;;4984492;28;20410;-65
2023/03/10 00:17:22;;;;;;;31.33;15.52;;;;;;;;;;4993306;28;20081;-65
2023/03/10 00:19:49;;;;;;;28.25;15.27;;;;;;;;;;4988296;28;20545;-65
2023/03/10 00:22:16;;;;;;;31.80;16.88;;;;;;;;;;4984284;28;20541;-65
2023/03/10 00:24:44;;;;;;;29.00;15.38;;;;;;;;;;4982782;28;20388;-64
2023/03/10 00:27:12;;;;;;;31.95;16.80;;;;;;;;;;4979735;28;20042;-65
2023/03/10 00:29:40;;;;;;;31.17;16.88;;;;;;;;;;4984778;28;20073;-65
2023/03/10 00:32:07;;;;;;;30.08;15.95;;;;;;;;;;4977986;28;20045;-65
2023/03/10 00:34:35;;;;;;;32.38;17.73;;;;;;;;;;4985935;28;20046;-65
2023/03/10 00:37:02;;;;;;;31.73;16.98;;;;;;;;;;4988801;28;20133;-65
2023/03/10 00:39:29;;;;;;;33.35;18.90;;;;;;;;;;4987408;28;20101;-65
2023/03/10 00:41:57;;;;;;;36.30;19.33;;;;;;;;;;4988490;28;20070;-65
2023/03/10 00:44:27;;;;;;;40.28;22.02;;;;;;;;;;4988428;28;20137;-65
2023/03/10 00:46:54;;;;;;;37.88;21.25;;;;;;;;;;4991146;28;20470;-65
2023/03/10 00:49:21;;;;;;;42.75;21.25;;;;;;;;;;4991387;28;20050;-65
2023/03/10 00:51:48;;;;;;;38.88;20.58;;;;;;;;;;4991833;28;20065;-65
2023/03/10 00:54:16;;;;;;;42.92;22.48;;;;;;;;;;4992515;28;20455;-65
2023/03/10 00:56:43;;;;;;;45.92;23.10;;;;;;;;;;4990348;28;20042;-65
2023/03/10 00:59:11;;;;;;;40.55;21.40;;;;;;;;;;4989558;28;20061;-65
2023/03/10 01:01:41;;;;;;;49.13;24.55;;;;;;;;;;4988737;28;20078;-65
2023/03/10 01:04:09;;;;;;;42.63;22.15;;;;;;;;;;4974408;28;20129;-65
2023/03/10 01:06:36;;;;;;;41.42;21.63;;;;;;;;;;4990463;28;20553;-65
2023/03/10 01:09:04;;;;;;;35.53;19.92;;;;;;;;;;4990881;28;20065;-65
2023/03/10 01:11:32;;;;;;;35.38;19.05;;;;;;;;;;4982618;28;20093;-65
2023/03/10 01:14:00;;;;;;;28.70;16.63;;;;;;;;;;4991957;28;20058;-65
2023/03/10 01:16:28;;;;;;;27.33;16.38;;;;;;;;;;4988956;28;20098;-64
2023/03/10 01:18:56;;;;;;;30.00;15.57;;;;;;;;;;4992426;28;20057;-65
2023/03/10 01:21:25;;;;;;;26.40;15.13;;;;;;;;;;4988982;28;20050;-65
2023/03/10 01:23:53;;;;;;;26.17;14.82;;;;;;;;;;4990701;28;20055;-65
2023/03/10 01:26:20;;;;;;;22.15;13.73;;;;;;;;;;4988175;28;20133;-65
2023/03/10 01:28:48;;;;;;;25.35;14.00;;;;;;;;;;4985963;28;21241;-65
2023/03/10 01:31:16;;;;;;;24.00;13.48;;;;;;;;;;4988349;28;20108;-65
2023/03/10 01:33:44;;;;;;;21.20;12.40;;;;;;;;;;4987968;28;20060;-65
2023/03/10 01:36:14;;;;;;;22.67;12.90;;;;;;;;;;4991488;28;20046;-65
2023/03/10 01:38:42;;;;;;;21.30;11.98;;;;;;;;;;4986662;28;20105;-65
2023/03/10 01:41:09;;;;;;;21.55;12.45;;;;;;;;;;4986639;28;20075;-65
2023/03/10 01:43:37;;;;;;;20.17;11.55;;;;;;;;;;4973204;28;20398;-65
2023/03/10 01:46:29;;;;;;;20.20;11.82;;;;;;;;;;4988168;28;20056;-65
2023/03/10 01:48:57;;;;;;;21.77;12.15;;;;;;;;;;4989311;28;20062;-66
2023/03/10 01:51:26;;;;;;;20.92;11.43;;;;;;;;;;4991412;28;20038;-65
2023/03/10 01:53:54;;;;;;;18.98;11.88;;;;;;;;;;4985160;28;20074;-65
2023/03/10 01:56:21;;;;;;;23.17;14.00;;;;;;;;;;4989104;28;20409;-65
2023/03/10 01:58:49;;;;;;;25.13;15.05;;;;;;;;;;4989184;28;20050;-65
2023/03/10 02:01:17;;;;;;;22.77;14.05;;;;;;;;;;4990730;28;20046;-65
2023/03/10 02:03:47;;;;;;;24.10;13.48;;;;;;;;;;4988758;28;20058;-65
2023/03/10 02:06:15;;;;;;;24.95;14.55;;;;;;;;;;4990478;28;20501;-65
2023/03/10 02:08:46;;;;;;;23.50;14.25;;;;;;;;;;4989964;28;20051;-65
2023/03/10 02:11:14;;;;;;;21.40;13.02;;;;;;;;;;4990685;28;20058;-65
2023/03/10 02:13:41;;;;;;;22.92;13.90;;;;;;;;;;4989478;28;20049;-65
2023/03/10 02:16:09;;;;;;;19.95;13.15;;;;;;;;;;4990115;28;20054;-65
2023/03/10 02:18:36;;;;;;;25.02;13.85;;;;;;;;;;4983038;28;20058;-65
2023/03/10 02:21:07;;;;;;;24.15;14.07;;;;;;;;;;4985255;28;20058;-65
2023/03/10 02:23:37;;;;;;;19.58;12.65;;;;;;;;;;4990299;28;20054;-64
2023/03/10 02:26:10;;;;;;;22.85;14.23;;;;;;;;;;4984483;28;20101;-65
2023/03/10 02:28:39;;;;;;;22.90;13.55;;;;;;;;;;4967108;28;20383;-65
2023/03/10 02:31:07;;;;;;;25.70;13.65;;;;;;;;;;4991046;28;20516;-65
2023/03/10 02:33:36;;;;;;;23.63;13.93;;;;;;;;;;4987858;28;20054;-66
2023/03/10 02:36:04;;;;;;;21.52;13.38;;;;;;;;;;4989904;28;20042;-66
2023/03/10 02:38:32;;;;;;;22.52;13.75;;;;;;;;;;4989607;28;20054;-65
2023/03/10 02:40:59;;;;;;;20.92;13.60;;;;;;;;;;4988856;28;20066;-65
2023/03/10 02:43:28;;;;;;;21.77;13.10;;;;;;;;;;4989743;28;20058;-65
2023/03/10 02:45:58;;;;;;;22.98;14.50;;;;;;;;;;4989393;28;20078;-65
2023/03/10 02:48:27;;;;;;;23.50;13.73;;;;;;;;;;4984970;28;20104;-65
2023/03/10 02:50:55;;;;;;;21.67;13.77;;;;;;;;;;4969491;28;20429;-65
2023/03/10 02:53:24;;;;;;;22.20;13.82;;;;;;;;;;4990427;28;20053;-65
2023/03/10 02:55:52;;;;;;;21.98;12.75;;;;;;;;;;4972417;28;20054;-66
2023/03/10 02:58:19;;;;;;;22.67;13.60;;;;;;;;;;4983655;28;20047;-65
2023/03/10 03:00:48;;;;;;;22.48;13.73;;;;;;;;;;4988275;28;20573;-65
2023/03/10 03:03:17;;;;;;;21.83;13.77;;;;;;;;;;4988460;28;20141;-65
2023/03/10 03:05:45;;;;;;;23.05;13.68;;;;;;;;;;4988319;28;20050;-65
2023/03/10 03:08:12;;;;;;;22.58;13.85;;;;;;;;;;4987511;28;20070;-66
2023/03/10 03:10:40;;;;;;;25.23;15.13;;;;;;;;;;4987586;28;20059;-65
2023/03/10 03:13:07;;;;;;;24.10;14.68;;;;;;;;;;4987194;28;20042;-66
2023/03/10 03:15:35;;;;;;;21.75;13.98;;;;;;;;;;4986415;28;20050;-65
2023/03/10 03:18:03;;;;;;;23.52;14.50;;;;;;;;;;4985955;28;20061;-65
2023/03/10 03:20:32;;;;;;;24.48;14.57;;;;;;;;;;4987312;28;20062;-65
2023/03/10 03:22:59;;;;;;;25.85;14.95;;;;;;;;;;4988199;28;20069;-66
2023/03/10 03:25:28;;;;;;;28.95;15.45;;;;;;;;;;4989501;28;20150;-65
2023/03/10 03:27:55;;;;;;;26.83;15.80;;;;;;;;;;4988727;28;20108;-64
2023/03/10 03:30:24;;;;;;;24.45;15.32;;;;;;;;;;4989775;28;20046;-65
2023/03/10 03:32:51;;;;;;;27.35;15.35;;;;;;;;;;4988557;28;20133;-65
2023/03/10 03:35:20;;;;;;;25.02;15.45;;;;;;;;;;4988937;28;20046;-65
2023/03/10 03:37:49;;;;;;;26.95;15.55;;;;;;;;;;4987346;28;20086;-65
2023/03/10 03:40:16;;;;;;;25.95;15.85;;;;;;;;;;4989882;28;20042;-65
2023/03/10 03:42:44;;;;;;;25.88;15.30;;;;;;;;;;4988337;28;20069;-65
2023/03/10 03:45:12;;;;;;;26.08;15.25;;;;;;;;;;4989235;28;20509;-65
2023/03/10 03:47:39;;;;;;;26.90;15.23;;;;;;;;;;4987598;28;21214;-65
2023/03/10 03:50:08;;;;;;;25.65;15.30;;;;;;;;;;4988852;28;20478;-65
2023/03/10 03:52:36;;;;;;;26.75;15.52;;;;;;;;;;4985859;28;20058;-65
2023/03/10 03:55:04;;;;;;;24.02;14.98;;;;;;;;;;4984643;28;20434;-65
2023/03/10 03:57:32;;;;;;;24.33;15.27;;;;;;;;;;4986835;28;20054;-65
2023/03/10 03:59:59;;;;;;;28.02;15.50;;;;;;;;;;4986784;28;20465;-65
2023/03/10 04:02:26;;;;;;;25.63;15.20;;;;;;;;;;4987003;28;20049;-65
2023/03/10 04:04:53;;;;;;;27.20;15.02;;;;;;;;;;4988234;28;20506;-66
2023/03/10 04:07:21;;;;;;;27.10;16.33;;;;;;;;;;4981114;28;20449;-65
2023/03/10 04:09:48;;;;;;;26.48;15.63;;;;;;;;;;4985934;28;20417;-65
2023/03/10 04:12:17;;;;;;;23.95;14.85;;;;;;;;;;4987963;28;20047;-65
2023/03/10 04:14:44;;;;;;;24.73;15.02;;;;;;;;;;4983297;28;20968;-65
2023/03/10 04:17:11;;;;;;;26.27;15.77;;;;;;;;;;4990940;28;20053;-65
2023/03/10 04:19:38;;;;;;;24.60;15.18;;;;;;;;;;4989890;28;20409;-65
2023/03/10 04:22:06;;;;;;;24.80;15.43;;;;;;;;;;4991917;28;20050;-65
2023/03/10 04:24:33;;;;;;;28.80;16.00;;;;;;;;;;4990073;28;20441;-65
2023/03/10 04:27:00;;;;;;;25.75;15.80;;;;;;;;;;4974881;28;20050;-65
2023/03/10 04:29:29;;;;;;;24.48;14.75;;;;;;;;;;4984535;28;20047;-65
2023/03/10 04:31:56;;;;;;;24.27;13.85;;;;;;;;;;4991383;28;20057;-65
2023/03/10 04:34:23;;;;;;;26.45;15.65;;;;;;;;;;4995359;28;20054;-65
2023/03/10 04:36:50;;;;;;;26.00;14.60;;;;;;;;;;4991441;28;20498;-65
2023/03/10 04:39:18;;;;;;;28.52;14.93;;;;;;;;;;4993158;28;20050;-65
2023/03/10 04:41:45;;;;;;;23.45;14.25;;;;;;;;;;4992040;28;20054;-65
2023/03/10 04:44:12;;;;;;;25.30;14.18;;;;;;;;;;4993522;28;20092;-65
2023/03/10 04:46:41;;;;;;;27.17;15.10;;;;;;;;;;4987925;28;20522;-65
2023/03/10 04:49:08;;;;;;;27.02;15.35;;;;;;;;;;4994325;28;20050;-65
2023/03/10 04:51:35;;;;;;;26.83;15.05;;;;;;;;;;4994497;28;20201;-65
2023/03/10 04:54:03;;;;;;;31.52;16.73;;;;;;;;;;4990195;28;20046;-65
2023/03/10 04:56:30;;;;;;;30.15;16.08;;;;;;;;;;4975474;28;20054;-65
2023/03/10 04:58:57;;;;;;;40.88;18.58;;;;;;;;;;4994662;28;20100;-65
2023/03/10 05:01:24;;;;;;;36.42;17.63;;;;;;;;;;4994502;28;20054;-65
2023/03/10 05:03:53;;;;;;;37.95;19.25;;;;;;;;;;4992288;28;20069;-65
2023/03/10 05:06:21;;;;;;;40.42;20.38;;;;;;;;;;4991903;28;20050;-65
2023/03/10 05:08:49;;;;;;;49.60;22.25;;;;;;;;;;4992129;28;20054;-65
2023/03/10 05:11:16;;;;;;;48.58;23.10;;;;;;;;;;4992446;28;20512;-65
2023/03/10 05:13:43;;;;;;;54.30;23.27;;;;;;;;;;4993704;28;20474;-65
2023/03/10 05:16:14;;;;;;;53.08;23.73;;;;;;;;;;4995267;28;20054;-65
2023/03/10 05:18:41;;;;;;;59.85;26.38;;;;;;;;;;4991499;28;20564;-65
2023/03/10 05:21:10;;;;;;;58.17;24.38;;;;;;;;;;4994579;28;20044;-65
2023/03/10 05:23:38;;;;;;;62.08;26.83;;;;;;;;;;4993963;28;20054;-65
2023/03/10 05:26:05;;;;;;;61.28;27.05;;;;;;;;;;4995130;28;20053;-65
2023/03/10 05:28:32;;;;;;;56.75;24.25;;;;;;;;;;4988175;28;20053;-65
2023/03/10 05:31:00;;;;;;;58.78;25.58;;;;;;;;;;4989160;28;20042;-65
2023/03/10 05:33:27;;;;;;;52.38;24.23;;;;;;;;;;4989921;28;20057;-65
2023/03/10 05:35:55;;;;;;;49.72;23.58;;;;;;;;;;4986003;28;20051;-65
2023/03/10 05:38:23;;;;;;;53.80;23.88;;;;;;;;;;4981018;28;20410;-65
2023/03/10 05:40:50;;;;;;;53.17;23.75;;;;;;;;;;4984059;28;20046;-66
2023/03/10 05:43:18;;;;;;;52.47;23.30;;;;;;;;;;4985554;28;20039;-65
2023/03/10 05:45:45;;;;;;;51.63;23.17;;;;;;;;;;4989234;28;20054;-65
2023/03/10 05:48:12;;;;;;;52.45;21.95;;;;;;;;;;4988016;28;20045;-65
2023/03/10 05:50:39;;;;;;;45.42;21.50;;;;;;;;;;4997576;28;20134;-65
2023/03/10 05:53:07;;;;;;;47.58;22.08;;;;;;;;;;4991152;28;20492;-65
2023/03/10 05:55:35;;;;;;;41.15;19.80;;;;;;;;;;4991272;28;20053;-65
2023/03/10 05:58:03;;;;;;;45.60;21.48;;;;;;;;;;4983242;28;20043;-65
2023/03/10 06:00:30;;;;;;;42.40;19.88;;;;;;;;;;4989197;28;20058;-65
2023/03/10 06:02:57;;;;;;;40.25;19.13;;;;;;;;;;4991215;28;20386;-65
2023/03/10 06:05:25;;;;;;;40.28;19.33;;;;;;;;;;4988335;28;20414;-64
2023/03/10 06:07:52;;;;;;;39.80;18.58;;;;;;;;;;4986563;28;20066;-66
2023/03/10 06:10:19;;;;;;;40.90;18.70;;;;;;;;;;4990366;28;20069;-65
2023/03/10 06:12:48;;;;;;;36.33;17.00;;;;;;;;;;4990328;28;20077;-65
2023/03/10 06:15:15;;;;;;;37.22;17.15;;;;;;;;;;4990458;28;20547;-65
2023/03/10 06:17:42;;;;;;;42.20;17.52;;;;;;;;;;4990021;28;20440;-65
2023/03/10 06:20:10;;;;;;;36.00;17.88;;;;;;;;;;4991268;28;20078;-65
2023/03/10 06:22:37;;;;;;;36.65;17.15;;;;;;;;;;4983103;28;20045;-65
2023/03/10 06:25:05;;;;;;;36.30;18.27;;;;;;;;;;4990248;28;20744;-66
2023/03/10 06:27:32;;;;;;;33.60;16.83;;;;;;;;;;4985197;28;20058;-66
2023/03/10 06:30:01;;;;;;;35.72;17.85;;;;;;;;;;4982184;28;20128;-65
2023/03/10 06:32:28;;;;;;;39.95;17.92;;;;;;;;;;4969863;28;20050;-66
2023/03/10 06:34:55;;;;;;;37.58;17.95;;;;;;;;;;4988514;28;20081;-65
2023/03/10 06:37:23;;;;;;;37.40;18.10;;;;;;;;;;4986946;28;20058;-66
2023/03/10 06:39:50;;;;;;;34.95;17.02;;;;;;;;;;4987594;28;20481;-65
2023/03/10 06:42:17;;;;;;;38.47;17.83;;;;;;;;;;4988053;28;20050;-65
2023/03/10 06:44:44;;;;;;;38.50;17.30;;;;;;;;;;4988612;28;20112;-65
2023/03/10 06:47:13;;;;;;;39.17;17.10;;;;;;;;;;4987622;28;20129;-65
2023/03/10 06:49:40;;;;;;;41.40;18.25;;;;;;;;;;4988932;28;20085;-65
2023/03/10 06:52:07;;;;;;;55.55;19.73;;;;;;;;;;4987889;28;20046;-65
2023/03/10 06:54:35;;;;;;;40.28;18.02;;;;;;;;;;4985571;28;20043;-65
2023/03/10 06:57:02;;;;;;;41.80;18.67;;;;;;;;;;4990216;28;20125;-65
2023/03/10 06:59:31;;;;;;;45.42;19.17;;;;;;;;;;4983639;28;20058;-65
2023/03/10 07:01:58;;;;;;;46.55;18.90;;;;;;;;;;4989902;28;20170;-65
2023/03/10 07:04:27;;;;;;;41.72;18.23;;;;;;;;;;4984177;28;20046;-65
2023/03/10 07:06:54;;;;;;;48.50;17.70;;;;;;;;;;4988031;28;20046;-65
2023/03/10 07:09:22;;;;;;;41.75;17.90;;;;;;;;;;4984436;28;20058;-65
2023/03/10 07:11:49;;;;;;;39.03;18.13;;;;;;;;;;4973774;28;20052;-65
2023/03/10 07:14:16;;;;;;;36.53;16.60;;;;;;;;;;4984909;28;20155;-65
2023/03/10 07:16:45;;;;;;;33.35;16.23;;;;;;;;;;4989961;28;20372;-65
2023/03/10 07:19:12;;;;;;;38.28;16.35;;;;;;;;;;4982173;28;20510;-65
2023/03/10 07:21:41;;;;;;;84.70;18.08;;;;;;;;;;4988854;28;20097;-64
2023/03/10 07:24:08;;;;;;;35.65;16.08;;;;;;;;;;4982301;28;20050;-65
2023/03/10 07:26:36;;;;;;;35.85;15.57;;;;;;;;;;4987336;28;20046;-65
2023/03/10 07:29:03;;;;;;;31.55;15.55;;;;;;;;;;4980516;28;20486;-65
2023/03/10 07:31:31;;;;;;;38.95;15.70;;;;;;;;;;4987075;28;20065;-65
2023/03/10 07:34:00;;;;;;;46.40;16.48;;;;;;;;;;4988043;28;20046;-65
2023/03/10 07:36:28;;;;;;;34.40;15.70;;;;;;;;;;4961965;28;20117;-65
2023/03/10 07:38:57;;;;;;;45.20;15.90;;;;;;;;;;4989270;28;20133;-66
2023/03/10 07:41:24;;;;;;;33.20;14.77;;;;;;;;;;4992770;28;20509;-65
2023/03/10 07:43:52;;;;;;;30.40;14.27;;;;;;;;;;4966053;28;20054;-66
2023/03/10 07:46:20;;;;;;;27.08;13.60;;;;;;;;;;4969111;28;20055;-66
2023/03/10 07:48:48;;;;;;;30.95;13.68;;;;;;;;;;4986597;28;20457;-65
2023/03/10 07:51:15;;;;;;;32.30;13.23;;;;;;;;;;4981560;28;20053;-65
2023/03/10 07:53:42;;;;;;;29.70;13.75;;;;;;;;;;4971628;28;20094;-65
2023/03/10 07:56:12;;;;;;;25.88;13.30;;;;;;;;;;4984204;28;20054;-65
2023/03/10 07:58:39;;;;;;;26.42;13.48;;;;;;;;;;4987900;28;20398;-65
2023/03/10 08:01:07;;;;;;;27.27;13.73;;;;;;;;;;4984717;28;20051;-65
2023/03/10 08:03:35;;;;;;;29.00;14.15;;;;;;;;;;4985053;28;20050;-66
2023/03/10 08:06:04;;;;;;;35.83;16.45;;;;;;;;;;4983401;28;20051;-65
2023/03/10 08:08:31;;;;;;;53.92;16.13;;;;;;;;;;4986871;28;20066;-66
2023/03/10 08:11:03;;;;;;;37.45;15.70;;;;;;;;;;4984124;28;20046;-65
2023/03/10 08:13:32;;;;;;;49.03;17.55;;;;;;;;;;4988204;28;20061;-65
2023/03/10 08:16:00;;;;;;;31.02;15.45;;;;;;;;;;4984730;28;20061;-65
2023/03/10 08:18:28;;;;;;;28.38;15.27;;;;;;;;;;4984564;28;20049;-65
2023/03/10 08:20:55;;;;;;;29.65;13.75;;;;;;;;;;4984705;28;20078;-65
2023/03/10 08:23:23;;;;;;;30.77;15.43;;;;;;;;;;4984983;28;20057;-65
2023/03/10 08:25:50;;;;;;;31.48;15.30;;;;;;;;;;4983046;28;20050;-66
2023/03/10 08:28:17;;;;;;;33.25;15.52;;;;;;;;;;4984045;28;20425;-66
2023/03/10 08:30:46;;;;;;;29.75;15.35;;;;;;;;;;4988745;28;20080;-65
2023/03/10 08:33:13;;;;;;;31.55;16.77;;;;;;;;;;4982798;28;20413;-66
2023/03/10 08:35:40;;;;;;;28.23;16.17;;;;;;;;;;4985511;28;20057;-66
2023/03/10 08:38:08;;;;;;;34.78;16.33;;;;;;;;;;4980789;28;20065;-67
2023/03/10 08:40:35;;;;;;;30.98;16.92;;;;;;;;;;4983761;28;20058;-66
2023/03/10 08:43:04;;;;;;;33.40;16.85;;;;;;;;;;4988040;28;20052;-66
2023/03/10 08:45:32;;;;;;;39.03;18.00;;;;;;;;;;4988854;28;20052;-66
2023/03/10 08:48:00;;;;;;;33.30;17.88;;;;;;;;;;4988158;28;20449;-66
2023/03/10 08:50:28;;;;;;;35.17;17.63;;;;;;;;;;4982539;28;20122;-66
2023/03/10 08:52:55;;;;;;;38.13;19.20;;;;;;;;;;4988447;28;20349;-66
2023/03/10 08:55:23;;;;;;;37.17;19.52;;;;;;;;;;4986427;28;20056;-66
2023/03/10 08:57:50;;;;;;;44.38;18.33;;;;;;;;;;4970264;28;20134;-66
2023/03/10 09:00:18;;;;;;;29.48;17.75;;;;;;;;;;4985062;28;20391;-66
2023/03/10 09:02:46;;;;;;;34.33;17.20;;;;;;;;;;4988617;28;20133;-67
2023/03/10 09:05:14;;;;;;;32.92;16.95;;;;;;;;;;4975044;28;20054;-67
2023/03/10 09:07:41;;;;;;;30.52;17.02;;;;;;;;;;4987593;28;20052;-66
2023/03/10 09:10:09;;;;;;;32.17;16.13;;;;;;;;;;4986297;28;20038;-66
2023/03/10 09:12:36;;;;;;;36.75;17.13;;;;;;;;;;4991428;28;20051;-66
2023/03/10 09:15:04;;;;;;;30.90;16.85;;;;;;;;;;4992191;28;20885;-66
2023/03/10 09:17:31;;;;;;;28.95;15.35;;;;;;;;;;4990976;28;20050;-66
2023/03/10 09:19:59;;;;;;;33.10;16.23;;;;;;;;;;4991237;28;20043;-66
2023/03/10 09:22:27;;;;;;;29.50;16.40;;;;;;;;;;4989989;28;20776;-66
2023/03/10 09:24:55;;;;;;;28.05;15.80;;;;;;;;;;4991514;28;20445;-66
2023/03/10 09:27:22;;;;;;;29.65;14.93;;;;;;;;;;4983804;28;20501;-66
2023/03/10 09:29:50;;;;;;;29.30;15.07;;;;;;;;;;4987285;28;20375;-66
2023/03/10 09:32:17;;;;;;;27.45;15.55;;;;;;;;;;4991936;28;20044;-66
2023/03/10 09:34:45;;;;;;;25.55;14.55;;;;;;;;;;4991358;28;20141;-66
2023/03/10 09:37:12;;;;;;;24.15;14.25;;;;;;;;;;4989449;28;20054;-66
2023/03/10 09:39:41;;;;;;;25.80;13.73;;;;;;;;;;4990521;28;20042;-66
2023/03/10 09:42:19;;;;;;;24.00;13.75;;;;;;;;;;4987155;28;20446;-66
2023/03/10 09:44:52;;;;;;;22.73;13.13;;;;;;;;;;4984660;28;20046;-66
2023/03/10 09:47:24;;;;;;;28.90;14.48;;;;;;;;;;4989682;28;20042;-66
2023/03/10 09:49:55;;;;;;;23.88;13.70;;;;;;;;;;4990992;28;20046;-66
2023/03/10 09:52:27;;;;;;;29.70;14.15;;;;;;;;;;4990967;28;20410;-66
2023/03/10 09:54:59;;;;;;;24.48;13.25;;;;;;;;;;4989930;28;20526;-66
2023/03/10 09:57:26;;;;;;;25.00;13.00;;;;;;;;;;4989617;28;20528;-66
2023/03/10 09:59:55;;;;;;;25.38;13.02;;;;;;;;;;4990702;28;20061;-66
2023/03/10 10:02:24;;;;;;;26.35;14.07;;;;;;;;;;4990975;28;20398;-66
2023/03/10 10:04:54;;;;;;;28.25;14.25;;;;;;;;;;4990655;28;20049;-67
2023/03/10 10:07:22;;;;;;;24.13;13.70;;;;;;;;;;4972801;28;20058;-66
2023/03/10 10:09:52;;;;;;;27.02;13.35;;;;;;;;;;4990960;28;20140;-67
2023/03/10 10:12:22;;;;;;;26.92;13.48;;;;;;;;;;4987438;28;20046;-66
2023/03/10 10:14:50;;;;;;;26.17;13.45;;;;;;;;;;4987510;28;20418;-66
2023/03/10 10:17:22;;;;;;;20.63;11.63;;;;;;;;;;4982236;28;20065;-67
2023/03/10 10:19:50;;;;;;;24.92;12.98;;;;;;;;;;4990843;28;20082;-67
2023/03/10 10:22:21;;;;;;;28.10;11.95;;;;;;;;;;4988120;28;20126;-66
2023/03/10 10:25:13;;;;;;;24.45;11.55;;;;;;;;;;4972665;28;20050;-66
2023/03/10 10:27:44;;;;;;;24.10;11.43;;;;;;;;;;4967570;28;20558;-66
2023/03/10 10:30:28;;;;;;;23.60;11.65;;;;;;;;;;4984259;28;20109;-66
2023/03/10 10:32:56;;;;;;;26.50;12.15;;;;;;;;;;4986679;28;20053;-67
2023/03/10 10:35:24;;;;;;;25.02;11.73;;;;;;;;;;4990677;28;20497;-66
2023/03/10 10:37:59;;;;;;;18.65;9.15;;;;;;;;;;4968480;28;20051;-66
2023/03/10 10:40:27;;;;;;;18.38;9.45;;;;;;;;;;4990461;28;20042;-66
2023/03/10 10:42:56;;;;;;;20.05;9.38;;;;;;;;;;4986478;28;20050;-66
2023/03/10 10:45:29;;;;;;;17.60;7.97;;;;;;;;;;4986283;28;20050;-66
2023/03/10 10:47:56;;;;;;;;;;;;;;;;;;4986289;28;20038;-66
2023/03/10 10:50:25;;;;;;;14.75;7.22;;;;;;;;;;4972972;28;19926;-66
2023/03/10 10:52:53;;;;;;;15.98;8.02;;;;;;;;;;4984979;28;20580;-66
2023/03/10 10:55:28;;;;;;;16.05;7.65;;;;;;;;;;4986875;28;20506;-65
2023/03/10 10:57:58;;;;;;;14.50;6.85;;;;;;;;;;4984871;28;20658;-66
2023/03/10 11:00:26;;;;;;;14.75;7.47;;;;;;;;;;4990454;28;20449;-66
2023/03/10 11:02:54;;;;;;;19.48;9.45;;;;;;;;;;4965423;28;20063;-66
2023/03/10 11:05:22;;;;;;;18.13;8.43;;;;;;;;;;4987270;28;20499;-67
2023/03/10 11:07:51;;;;;;;15.40;8.15;;;;;;;;;;4970402;28;20065;-66
2023/03/10 11:10:19;;;;;;;18.25;8.32;;;;;;;;;;4988834;28;20058;-65
2023/03/10 11:12:52;;;;;;;13.27;7.38;;;;;;;;;;4984211;28;20481;-66
2023/03/10 11:15:24;;;;;;;18.65;8.82;;;;;;;;;;4988521;28;20218;-66
2023/03/10 11:17:53;;;;;;;18.08;8.90;;;;;;;;;;4990639;28;20646;-66
2023/03/10 11:20:24;;;;;;;19.30;9.15;;;;;;;;;;4988498;28;20054;-66
2023/03/10 11:22:55;;;;;;;25.33;8.93;;;;;;;;;;4989064;28;20058;-65
2023/03/10 11:25:26;;;;;;;15.10;8.38;;;;;;;;;;4990298;28;20058;-65
2023/03/10 11:27:58;;;;;;;17.58;9.27;;;;;;;;;;4989101;28;20050;-66
2023/03/10 11:30:30;;;;;;;15.38;8.05;;;;;;;;;;4986339;28;20466;-66
2023/03/10 11:33:04;;;;;;;18.98;8.57;;;;;;;;;;4986767;28;20062;-66
2023/03/10 11:35:36;;;;;;;18.65;9.27;;;;;;;;;;4986861;28;20062;-67
2023/03/10 11:38:11;;;;;;;17.80;9.48;;;;;;;;;;4986884;28;20050;-66
2023/03/10 11:40:42;;;;;;;17.38;9.30;;;;;;;;;;4987195;28;20065;-66
2023/03/10 11:43:15;;;;;;;16.88;8.77;;;;;;;;;;4986402;28;20051;-66
2023/03/10 11:45:47;;;;;;;13.40;7.10;;;;;;;;;;4986350;28;20070;-66
2023/03/10 11:48:24;;;;;;;12.32;7.00;;;;;;;;;;4967953;28;20050;-66
2023/03/10 11:50:53;;;;;;;10.75;6.05;;;;;;;;;;4984578;28;20074;-65
2023/03/10 11:53:26;;;;;;;14.27;6.35;;;;;;;;;;4967638;28;20058;-66
2023/03/10 11:55:54;;;;;;;15.35;6.75;;;;;;;;;;4989188;28;20042;-66
2023/03/10 11:58:24;;;;;;;12.90;5.78;;;;;;;;;;4989731;28;20132;-66
2023/03/10 12:00:55;;;;;;;15.80;6.40;;;;;;;;;;4988875;28;20042;-66
2023/03/10 12:03:30;;;;;;;15.93;6.53;;;;;;;;;;4992101;28;20050;-66
2023/03/10 12:05:59;;;;;;;13.93;6.75;;;;;;;;;;4986110;28;20042;-66
2023/03/10 12:08:30;;;;;;;16.35;7.70;;;;;;;;;;4986894;28;20049;-66
2023/03/10 12:11:00;;;;;;;16.73;6.85;;;;;;;;;;4985739;28;20042;-66
2023/03/10 12:13:29;;;;;;;13.82;7.40;;;;;;;;;;4986863;28;20082;-65
2023/03/10 12:15:59;;;;;;;12.15;7.20;;;;;;;;;;4988575;28;20038;-66
2023/03/10 12:18:26;;;;;;;18.58;7.43;;;;;;;;;;4987636;28;20409;-65
2023/03/10 12:21:13;;;;;;;17.65;8.25;;;;;;;;;;4987999;28;20481;-66
2023/03/10 12:23:41;;;;;;;15.00;7.50;;;;;;;;;;4987551;28;20129;-66
2023/03/10 12:26:08;;;;;;;14.18;7.38;;;;;;;;;;4989038;28;20052;-66
2023/03/10 12:28:35;;;;;;;13.07;6.57;;;;;;;;;;4987845;28;20500;-66
2023/03/10 12:31:09;;;;;;;10.07;5.60;;;;;;;;;;4987291;28;20053;-66
2023/03/10 12:33:36;;;;;;;;;;;;;;;;;;4986935;28;20054;-65
2023/03/10 12:36:05;;;;;;;14.82;5.95;;;;;;;;;;4984864;28;20005;-66
2023/03/10 12:38:38;;;;;;;12.65;6.07;;;;;;;;;;4987867;28;20074;-66
2023/03/10 12:41:05;;;;;;;11.02;5.38;;;;;;;;;;4973045;28;20057;-66
2023/03/10 12:44:04;;;;;;;9.57;4.90;;;;;;;;;;4992218;28;20079;-65
2023/03/10 12:46:41;;;;;;;11.52;4.65;;;;;;;;;;4991327;28;20096;-65
2023/03/10 12:49:22;;;;;;;8.63;4.25;;;;;;;;;;4990652;28;20405;-66
2023/03/10 12:51:52;;;;;;;11.55;5.28;;;;;;;;;;4980373;28;20051;-67
2023/03/10 12:54:31;;;;;;;9.68;4.80;;;;;;;;;;4984412;28;20512;-65
2023/03/10 12:57:03;;;;;;;12.07;4.90;;;;;;;;;;4988697;28;20053;-66
2023/03/10 12:59:35;;;;;;;9.07;4.40;;;;;;;;;;4989315;28;20055;-66
2023/03/10 13:02:04;;;;;;;9.70;4.93;;;;;;;;;;4992675;28;20413;-66
2023/03/10 13:04:32;;;;;;;9.98;5.30;;;;;;;;;;4987824;28;20077;-66
2023/03/10 13:07:02;;;;;;;9.38;4.63;;;;;;;;;;4991488;28;20503;-65
2023/03/10 13:09:31;;;;;;;10.63;4.57;;;;;;;;;;4986305;28;20058;-66
2023/03/10 13:12:01;;;;;;;8.90;3.88;;;;;;;;;;4988674;28;20069;-66
2023/03/10 13:14:34;;;;;;;8.70;4.25;;;;;;;;;;4981826;28;20054;-66
2023/03/10 13:17:02;;;;;;;;;;;;;;;;;;4989941;28;20062;-66
2023/03/10 13:19:31;;;;;;;9.52;3.83;;;;;;;;;;4988063;28;20270;-66
2023/03/10 13:21:59;;;;;;;11.35;4.20;;;;;;;;;;4988938;28;21455;-66
2023/03/10 13:24:28;;;;;;;13.35;3.92;;;;;;;;;;4992456;28;20540;-65
2023/03/10 13:27:05;;;;;;;10.73;3.40;;;;;;;;;;4985329;28;20780;-65
2023/03/10 13:29:33;;;;;;;10.38;3.95;;;;;;;;;;4989385;28;20699;-66
2023/03/10 13:32:00;;;;;;;8.82;3.75;;;;;;;;;;4990223;28;20517;-65
2023/03/10 13:34:28;;;;;;;6.72;3.30;;;;;;;;;;4984557;28;20130;-65
2023/03/10 13:37:03;;;;;;;2.92;1.50;;;;;;;;;;4989747;28;20053;-65
2023/03/10 13:39:30;;;;;;;8.27;2.20;;;;;;;;;;4987619;28;20217;-65
2023/03/10 13:41:59;;;;;;;6.50;2.55;;;;;;;;;;4989192;28;20042;-66
2023/03/10 13:44:27;;;;;;;6.65;1.90;;;;;;;;;;4987409;28;20054;-66
2023/03/10 13:46:57;;;;;;;4.40;1.80;;;;;;;;;;4992366;28;20385;-66
2023/03/10 13:49:26;;;;;;;6.20;2.30;;;;;;;;;;4987629;28;20052;-65
2023/03/10 13:51:54;;;;;;;4.47;2.10;;;;;;;;;;4993410;28;20401;-65
2023/03/10 13:54:24;;;;;;;5.07;1.70;;;;;;;;;;4994200;28;20050;-66
2023/03/10 13:56:52;;;;;;;4.57;2.40;;;;;;;;;;4974355;28;20058;-65
2023/03/10 13:59:21;;;;;;;5.88;1.60;;;;;;;;;;4990333;28;20058;-66
2023/03/10 14:01:49;;;;;;;8.90;1.80;;;;;;;;;;4991150;28;20084;-65
2023/03/10 14:04:18;;;;;;;7.97;2.47;;;;;;;;;;4988779;28;20046;-65
2023/03/10 14:06:45;;;;;;;12.57;3.55;;;;;;;;;;4988761;28;20055;-66
2023/03/10 14:09:14;;;;;;;7.75;2.85;;;;;;;;;;4972231;28;20061;-66
2023/03/10 14:11:43;;;;;;;7.18;2.65;;;;;;;;;;4988358;28;20636;-66
2023/03/10 14:14:13;;;;;;;6.63;2.65;;;;;;;;;;4988394;28;20058;-66
2023/03/10 14:17:01;;;;;;;6.75;2.50;;;;;;;;;;4990729;28;20077;-66
2023/03/10 14:19:52;;;;;;;5.82;2.47;;;;;;;;;;4982590;28;20050;-65
2023/03/10 14:22:29;;;;;;;4.80;2.35;;;;;;;;;;4964444;28;20047;-66
2023/03/10 14:24:57;;;;;;;5.45;2.25;;;;;;;;;;4982921;28;20058;-66
2023/03/10 14:27:27;;;;;;;7.72;2.78;;;;;;;;;;4985797;28;20135;-66
2023/03/10 14:29:57;;;;;;;11.32;4.38;;;;;;;;;;4989242;28;20050;-66
2023/03/10 14:32:24;;;;;;;7.38;3.95;;;;;;;;;;4989979;28;20065;-66